Time,TemperatureF,DewpointF,PressureIn,WindDirection,WindDirectionDegrees,WindSpeedMPH,WindSpeedGustMPH,Humidity,HourlyPrecipIn,Conditions,Clouds,dailyrainin,SolarRadiationWatts/m^2,SoftwareType,DateUTC
2013-01-23 00:13:00,51.6,43.0,30.02,East,101,0.0,0.0,73,0.00,,,0.00,0,weatherlink.com 1.10,2013-01-23 08:13:00,
2013-01-23 00:28:00,51.5,43.0,30.02,East,101,0.0,0.0,73,0.00,,,0.00,0,weatherlink.com 1.10,2013-01-23 08:28:00,
2013-01-23 00:43:00,51.5,43.0,30.02,East,101,0.0,0.0,72,0.00,,,0.00,0,weatherlink.com 1.10,2013-01-23 08:43:00,
2013-01-23 00:58:00,51.6,43.0,30.02,East,101,0.0,0.0,72,0.00,,,0.00,0,weatherlink.com 1.10,2013-01-23 08:58:00,
2013-01-23 01:13:00,51.6,43.0,30.02,East,101,0.0,0.0,72,0.00,,,0.00,0,weatherlink.com 1.10,2013-01-23 09:13:00,
2013-01-23 01:28:00,51.6,43.0,30.02,East,101,0.0,0.0,72,0.00,,,0.00,0,weatherlink.com 1.10,2013-01-23 09:28:00,
2013-01-23 01:43:00,51.5,42.0,30.01,East,101,0.0,1.0,70,0.00,,,0.00,0,weatherlink.com 1.10,2013-01-23 09:43:00,
2013-01-23 01:58:00,51.9,42.0,30.00,East,101,0.0,1.0,70,0.00,,,0.00,0,weatherlink.com 1.10,2013-01-23 09:58:00,
2013-01-23 02:13:00,52.1,43.0,30.00,East,101,0.0,1.0,71,0.00,,,0.00,0,weatherlink.com 1.10,2013-01-23 10:13:00,
2013-01-23 02:28:00,51.9,43.0,30.01,East,101,0.0,1.0,72,0.00,,,0.00,0,weatherlink.com 1.10,2013-01-23 10:28:00,
2013-01-23 02:43:00,51.8,43.0,30.01,East,101,0.0,0.0,73,0.00,,,0.00,0,weatherlink.com 1.10,2013-01-23 10:43:00,
2013-01-23 02:58:00,51.6,42.0,29.99,East,101,0.0,0.0,71,0.00,,,0.00,0,weatherlink.com 1.10,2013-01-23 10:58:00,
2013-01-23 03:14:00,52.1,43.0,29.98,East,101,0.0,1.0,70,0.00,,,0.00,0,weatherlink.com 1.10,2013-01-23 11:14:00,
2013-01-23 03:29:00,51.8,42.0,29.99,East,101,0.0,0.0,70,0.00,,,0.00,0,weatherlink.com 1.10,2013-01-23 11:29:00,
2013-01-23 03:44:00,51.5,41.0,29.97,East,101,0.0,1.0,68,0.00,,,0.00,0,weatherlink.com 1.10,2013-01-23 11:44:00,
2013-01-23 03:59:00,51.9,43.0,29.98,ESE,107,0.0,1.0,71,0.00,,,0.00,0,weatherlink.com 1.10,2013-01-23 11:59:00,
2013-01-23 04:14:00,51.6,44.0,29.98,ESE,107,0.0,0.0,74,0.00,,,0.00,0,weatherlink.com 1.10,2013-01-23 12:14:00,
2013-01-23 04:29:00,51.0,44.0,29.98,ESE,107,0.0,0.0,76,0.00,,,0.00,0,weatherlink.com 1.10,2013-01-23 12:29:00,
2013-01-23 04:44:00,50.7,43.0,29.97,ESE,107,0.0,1.0,75,0.00,,,0.00,0,weatherlink.com 1.10,2013-01-23 12:44:00,
2013-01-23 04:59:00,50.9,43.0,29.97,ESE,107,0.0,1.0,74,0.00,,,0.00,0,weatherlink.com 1.10,2013-01-23 12:59:00,
2013-01-23 05:14:00,50.8,43.0,29.95,ESE,107,0.0,1.0,74,0.00,,,0.00,0,weatherlink.com 1.10,2013-01-23 13:14:00,
2013-01-23 05:29:00,51.1,42.0,29.95,ESE,117,0.0,1.0,72,0.00,,,0.00,0,weatherlink.com 1.10,2013-01-23 13:29:00,
2013-01-23 05:44:00,51.0,43.0,29.96,ESE,117,0.0,1.0,73,0.00,,,0.00,0,weatherlink.com 1.10,2013-01-23 13:44:00,
2013-01-23 05:59:00,50.9,43.0,29.98,ESE,117,0.0,0.0,75,0.00,,,0.00,0,weatherlink.com 1.10,2013-01-23 13:59:00,
2013-01-23 06:14:00,50.6,43.0,29.96,ESE,117,0.0,1.0,76,0.00,,,0.00,0,weatherlink.com 1.10,2013-01-23 14:14:00,
2013-01-23 06:29:00,50.6,43.0,29.98,ESE,117,0.0,1.0,75,0.00,,,0.00,0,weatherlink.com 1.10,2013-01-23 14:29:00,
2013-01-23 06:44:00,50.5,43.0,29.97,ESE,117,0.0,0.0,76,0.00,,,0.00,0,weatherlink.com 1.10,2013-01-23 14:44:00,
2013-01-23 06:59:00,50.5,43.0,29.97,ESE,117,0.0,1.0,74,0.00,,,0.00,0,weatherlink.com 1.10,2013-01-23 14:59:00,
2013-01-23 07:14:00,51.0,43.0,29.98,ESE,117,0.0,0.0,74,0.00,,,0.00,0,weatherlink.com 1.10,2013-01-23 15:14:00,
2013-01-23 07:29:00,51.0,44.0,29.99,ESE,117,0.0,0.0,76,0.00,,,0.00,0,weatherlink.com 1.10,2013-01-23 15:29:00,
2013-01-23 07:44:00,50.8,44.0,29.99,ESE,117,0.0,1.0,76,0.00,,,0.00,12,weatherlink.com 1.10,2013-01-23 15:44:00,
2013-01-23 07:59:00,51.0,44.0,29.98,ESE,117,0.0,0.0,76,0.00,,,0.00,26,weatherlink.com 1.10,2013-01-23 15:59:00,
2013-01-23 08:14:00,50.9,44.0,29.99,ESE,117,0.0,0.0,77,0.00,,,0.00,21,weatherlink.com 1.10,2013-01-23 16:14:00,
2013-01-23 08:29:00,51.0,44.0,29.99,ESE,117,0.0,0.0,77,0.00,,,0.00,53,weatherlink.com 1.10,2013-01-23 16:29:00,
2013-01-23 08:44:00,51.4,44.0,29.99,ESE,117,0.0,0.0,77,0.00,,,0.00,79,weatherlink.com 1.10,2013-01-23 16:44:00,
2013-01-23 08:59:00,51.8,45.0,29.99,ESE,117,0.0,0.0,77,0.00,,,0.00,72,weatherlink.com 1.10,2013-01-23 16:59:00,
2013-01-23 09:14:00,52.4,45.0,29.99,ESE,117,0.0,0.0,75,0.00,,,0.00,81,weatherlink.com 1.10,2013-01-23 17:14:00,
2013-01-23 09:29:00,53.4,44.0,30.00,SSE,152,0.0,0.0,71,0.00,,,0.00,90,weatherlink.com 1.10,2013-01-23 17:29:00,
2013-01-23 09:44:00,53.7,46.0,30.01,NE,46,0.0,2.0,75,0.00,,,0.00,70,weatherlink.com 1.10,2013-01-23 17:44:00,
2013-01-23 09:59:00,53.7,46.0,30.02,SSE,164,0.0,1.0,76,0.00,,,0.00,95,weatherlink.com 1.10,2013-01-23 17:59:00,
2013-01-23 10:14:00,53.9,46.0,30.03,SSE,164,0.0,2.0,75,0.00,,,0.00,93,weatherlink.com 1.10,2013-01-23 18:14:00,
2013-01-23 10:29:00,53.8,46.0,30.03,SSE,164,1.0,1.0,75,0.00,,,0.00,76,weatherlink.com 1.10,2013-01-23 18:29:00,
2013-01-23 10:44:00,54.1,47.0,30.04,SSE,164,0.0,0.0,76,0.00,,,0.00,67,weatherlink.com 1.10,2013-01-23 18:44:00,
2013-01-23 10:59:00,54.1,48.0,30.03,SE,142,0.0,2.0,80,0.00,,,0.00,88,weatherlink.com 1.10,2013-01-23 18:59:00,
2013-01-23 11:14:00,53.9,48.0,30.04,SE,142,0.0,0.0,81,0.00,,,0.00,69,weatherlink.com 1.10,2013-01-23 19:14:00,
2013-01-23 11:29:00,54.1,49.0,30.03,SE,142,0.0,0.0,83,0.00,,,0.00,77,weatherlink.com 1.10,2013-01-23 19:29:00,
2013-01-23 11:44:00,54.2,49.0,30.04,SE,142,0.0,0.0,82,0.00,,,0.00,72,weatherlink.com 1.10,2013-01-23 19:44:00,
2013-01-23 11:59:00,54.2,50.0,30.02,SE,142,0.0,1.0,85,0.01,,,0.01,65,weatherlink.com 1.10,2013-01-23 19:59:00,
2013-01-23 12:14:00,53.9,48.0,30.01,ESE,106,0.0,2.0,80,0.01,,,0.01,69,weatherlink.com 1.10,2013-01-23 20:14:00,
2013-01-23 12:29:00,53.9,49.0,30.00,ESE,106,0.0,1.0,82,0.02,,,0.02,79,weatherlink.com 1.10,2013-01-23 20:29:00,
2013-01-23 12:44:00,54.1,50.0,30.00,East,91,0.0,1.0,86,0.02,,,0.02,65,weatherlink.com 1.10,2013-01-23 20:44:00,
2013-01-23 12:59:00,54.3,51.0,30.01,East,91,0.0,0.0,87,0.01,,,0.02,47,weatherlink.com 1.10,2013-01-23 20:59:00,
2013-01-23 13:14:00,54.2,50.0,30.01,East,91,0.0,2.0,86,0.02,,,0.03,49,weatherlink.com 1.10,2013-01-23 21:14:00,
2013-01-23 13:29:00,53.8,50.0,30.00,East,91,0.0,1.0,87,0.02,,,0.04,60,weatherlink.com 1.10,2013-01-23 21:29:00,
2013-01-23 13:44:00,53.7,50.0,30.00,East,91,0.0,1.0,88,0.03,,,0.05,79,weatherlink.com 1.10,2013-01-23 21:44:00,
2013-01-23 13:59:00,53.7,51.0,30.00,East,91,0.0,1.0,89,0.04,,,0.06,67,weatherlink.com 1.10,2013-01-23 21:59:00,
2013-01-23 14:14:00,53.9,51.0,29.99,East,91,0.0,1.0,90,0.03,,,0.06,65,weatherlink.com 1.10,2013-01-23 22:14:00,
2013-01-23 14:29:00,54.1,52.0,30.00,East,91,0.0,1.0,91,0.03,,,0.07,35,weatherlink.com 1.10,2013-01-23 22:29:00,
2013-01-23 14:45:00,52.8,50.0,30.03,North,9,1.0,3.0,89,0.08,,,0.13,26,weatherlink.com 1.10,2013-01-23 22:45:00,
2013-01-23 15:00:00,51.4,49.0,30.04,NNE,22,1.0,3.0,91,0.12,,,0.18,25,weatherlink.com 1.10,2013-01-23 23:00:00,
2013-01-23 15:15:00,51.0,49.0,30.06,ENE,61,0.0,2.0,92,0.13,,,0.19,28,weatherlink.com 1.10,2013-01-23 23:15:00,
2013-01-23 15:30:00,50.7,49.0,30.05,NNE,24,0.0,2.0,92,0.15,,,0.22,40,weatherlink.com 1.10,2013-01-23 23:30:00,
2013-01-23 15:45:00,50.7,49.0,30.04,NNE,24,0.0,1.0,93,0.09,,,0.22,44,weatherlink.com 1.10,2013-01-23 23:45:00,
2013-01-23 16:00:00,50.9,49.0,30.05,SE,127,1.0,2.0,93,0.04,,,0.22,11,weatherlink.com 1.10,2013-01-24 00:00:00,
2013-01-23 16:15:00,51.3,50.0,30.04,SE,128,0.0,1.0,94,0.06,,,0.25,23,weatherlink.com 1.10,2013-01-24 00:15:00,
2013-01-23 16:30:00,51.5,50.0,30.03,East,87,1.0,2.0,94,0.03,,,0.25,16,weatherlink.com 1.10,2013-01-24 00:30:00,
2013-01-23 16:45:00,51.5,50.0,30.04,NNE,19,0.0,1.0,94,0.03,,,0.25,7,weatherlink.com 1.10,2013-01-24 00:45:00,
2013-01-23 17:00:00,51.6,50.0,30.04,NNE,20,0.0,1.0,94,0.03,,,0.25,0,weatherlink.com 1.10,2013-01-24 01:00:00,
2013-01-23 17:15:00,51.6,50.0,30.04,NNE,30,0.0,1.0,94,0.00,,,0.25,0,weatherlink.com 1.10,2013-01-24 01:15:00,
2013-01-23 17:30:00,51.9,50.0,30.04,NNE,30,0.0,0.0,94,0.00,,,0.25,0,weatherlink.com 1.10,2013-01-24 01:30:00,
2013-01-23 17:45:00,52.4,51.0,30.05,NNE,17,0.0,2.0,94,0.00,,,0.25,0,weatherlink.com 1.10,2013-01-24 01:45:00,
2013-01-23 18:00:00,52.6,51.0,30.05,NNE,12,0.0,2.0,95,0.01,,,0.26,0,weatherlink.com 1.10,2013-01-24 02:00:00,
2013-01-23 18:15:00,52.5,51.0,30.07,South,170,1.0,3.0,94,0.01,,,0.26,0,weatherlink.com 1.10,2013-01-24 02:15:00,
2013-01-23 18:30:00,52.0,50.0,30.06,South,169,0.0,2.0,94,0.01,,,0.26,0,weatherlink.com 1.10,2013-01-24 02:30:00,
2013-01-23 18:45:00,51.7,50.0,30.05,South,169,0.0,0.0,94,0.01,,,0.26,0,weatherlink.com 1.10,2013-01-24 02:45:00,
2013-01-23 19:00:00,51.3,50.0,30.05,South,169,0.0,1.0,94,0.00,,,0.26,0,weatherlink.com 1.10,2013-01-24 03:00:00,
2013-01-23 19:15:00,51.2,50.0,30.05,South,169,0.0,2.0,95,0.00,,,0.26,0,weatherlink.com 1.10,2013-01-24 03:15:00,
2013-01-23 19:30:00,50.9,49.0,30.06,South,169,0.0,2.0,94,0.00,,,0.26,0,weatherlink.com 1.10,2013-01-24 03:30:00,
2013-01-23 19:45:00,50.8,50.0,30.06,South,169,0.0,2.0,95,0.00,,,0.26,0,weatherlink.com 1.10,2013-01-24 03:45:00,
2013-01-23 20:00:00,50.6,49.0,30.06,South,169,0.0,1.0,95,0.00,,,0.26,0,weatherlink.com 1.10,2013-01-24 04:00:00,
2013-01-23 20:15:00,50.5,49.0,30.07,South,169,0.0,0.0,95,0.00,,,0.26,0,weatherlink.com 1.10,2013-01-24 04:15:00,
2013-01-23 20:30:00,50.4,49.0,30.08,South,169,0.0,2.0,95,0.00,,,0.26,0,weatherlink.com 1.10,2013-01-24 04:30:00,
2013-01-23 20:45:00,50.2,49.0,30.08,South,169,0.0,2.0,95,0.01,,,0.27,0,weatherlink.com 1.10,2013-01-24 04:45:00,
2013-01-23 21:00:00,50.3,49.0,30.08,South,169,0.0,2.0,95,0.01,,,0.27,0,weatherlink.com 1.10,2013-01-24 05:00:00,
2013-01-23 21:15:00,50.4,49.0,30.07,SSE,166,1.0,2.0,95,0.02,,,0.28,0,weatherlink.com 1.10,2013-01-24 05:15:00,
2013-01-23 21:30:00,50.4,49.0,30.07,NNE,18,0.0,3.0,95,0.02,,,0.28,0,weatherlink.com 1.10,2013-01-24 05:30:00,
2013-01-23 21:45:00,50.4,49.0,30.07,North,360,1.0,3.0,96,0.01,,,0.28,0,weatherlink.com 1.10,2013-01-24 05:45:00,
2013-01-23 22:00:00,51.1,50.0,30.07,SSW,209,1.0,5.0,96,0.02,,,0.29,0,weatherlink.com 1.10,2013-01-24 06:00:00,
2013-01-23 22:15:00,50.2,49.0,30.07,SW,225,2.0,5.0,95,0.01,,,0.29,0,weatherlink.com 1.10,2013-01-24 06:15:00,
2013-01-23 22:30:00,49.7,48.0,30.07,South,175,3.0,5.0,94,0.01,,,0.29,0,weatherlink.com 1.10,2013-01-24 06:30:00,
2013-01-23 22:45:00,49.4,48.0,30.07,SE,130,4.0,7.0,94,0.01,,,0.29,0,weatherlink.com 1.10,2013-01-24 06:45:00,
2013-01-23 23:00:00,49.3,47.0,30.08,NNE,16,3.0,6.0,93,0.00,,,0.29,0,weatherlink.com 1.10,2013-01-24 07:00:00,
2013-01-23 23:15:00,49.3,47.0,30.08,SW,219,2.0,6.0,93,0.00,,,0.29,0,weatherlink.com 1.10,2013-01-24 07:15:00,
2013-01-23 23:30:00,49.5,48.0,30.07,SSE,148,3.0,8.0,93,0.00,,,0.29,0,weatherlink.com 1.10,2013-01-24 07:30:00,
2013-01-23 23:45:00,49.7,48.0,30.07,East,93,2.0,7.0,92,0.00,,,0.29,0,weatherlink.com 1.10,2013-01-24 07:45:00,